sensor_id;sensor_type;location;lat;lon;timestamp;P1;durP1;ratioP1;P2;durP2;ratioP2
7903;SDS011;3997;48.416;8.512;2024-01-15T00:00:35;13.05;;;6.80;;
7903;SDS011;3997;48.416;8.512;2024-01-15T00:03:02;12.38;;;7.00;;
7903;SDS011;3997;48.416;8.512;2024-01-15T00:05:28;12.50;;;6.80;;
7903;SDS011;3997;48.416;8.512;2024-01-15T00:07:56;13.77;;;7.25;;
7903;SDS011;3997;48.416;8.512;2024-01-15T00:10:22;12.50;;;7.25;;
7903;SDS011;3997;48.416;8.512;2024-01-15T00:12:49;11.40;;;6.43;;
7903;SDS011;3997;48.416;8.512;2024-01-15T00:15:15;13.40;;;7.20;;
7903;SDS011;3997;48.416;8.512;2024-01-15T00:17:42;11.25;;;7.00;;
7903;SDS011;3997;48.416;8.512;2024-01-15T00:20:08;12.90;;;7.18;;
7903;SDS011;3997;48.416;8.512;2024-01-15T00:22:35;11.98;;;6.50;;
7903;SDS011;3997;48.416;8.512;2024-01-15T00:25:03;13.63;;;7.05;;
7903;SDS011;3997;48.416;8.512;2024-01-15T00:27:30;13.30;;;6.97;;
7903;SDS011;3997;48.416;8.512;2024-01-15T00:29:56;10.75;;;6.22;;
7903;SDS011;3997;48.416;8.512;2024-01-15T00:32:23;11.82;;;6.50;;
7903;SDS011;3997;48.416;8.512;2024-01-15T00:34:49;9.40;;;6.15;;
7903;SDS011;3997;48.416;8.512;2024-01-15T00:37:16;11.10;;;6.63;;
7903;SDS011;3997;48.416;8.512;2024-01-15T00:39:42;10.32;;;6.05;;
7903;SDS011;3997;48.416;8.512;2024-01-15T00:42:10;14.05;;;6.60;;
7903;SDS011;3997;48.416;8.512;2024-01-15T00:44:37;12.35;;;6.75;;
7903;SDS011;3997;48.416;8.512;2024-01-15T00:47:03;12.85;;;6.45;;
7903;SDS011;3997;48.416;8.512;2024-01-15T00:49:30;12.20;;;5.50;;
7903;SDS011;3997;48.416;8.512;2024-01-15T00:51:56;10.35;;;5.80;;
7903;SDS011;3997;48.416;8.512;2024-01-15T00:54:23;13.18;;;6.82;;
7903;SDS011;3997;48.416;8.512;2024-01-15T00:56:49;14.48;;;6.60;;
7903;SDS011;3997;48.416;8.512;2024-01-15T00:59:17;10.80;;;6.22;;
7903;SDS011;3997;48.416;8.512;2024-01-15T01:01:45;13.13;;;6.72;;
7903;SDS011;3997;48.416;8.512;2024-01-15T01:04:12;13.80;;;7.00;;
7903;SDS011;3997;48.416;8.512;2024-01-15T01:06:39;12.50;;;7.03;;
7903;SDS011;3997;48.416;8.512;2024-01-15T01:09:06;15.25;;;7.22;;
7903;SDS011;3997;48.416;8.512;2024-01-15T01:11:32;12.18;;;7.20;;
7903;SDS011;3997;48.416;8.512;2024-01-15T01:13:58;12.30;;;7.47;;
7903;SDS011;3997;48.416;8.512;2024-01-15T01:16:27;13.35;;;6.97;;
7903;SDS011;3997;48.416;8.512;2024-01-15T01:18:53;12.27;;;6.65;;
7903;SDS011;3997;48.416;8.512;2024-01-15T01:21:20;15.35;;;7.75;;
7903;SDS011;3997;48.416;8.512;2024-01-15T01:23:46;13.80;;;7.45;;
7903;SDS011;3997;48.416;8.512;2024-01-15T01:26:15;13.98;;;7.07;;
7903;SDS011;3997;48.416;8.512;2024-01-15T01:28:41;16.95;;;7.57;;
7903;SDS011;3997;48.416;8.512;2024-01-15T01:31:08;13.02;;;7.03;;
7903;SDS011;3997;48.416;8.512;2024-01-15T01:33:37;15.20;;;8.13;;
7903;SDS011;3997;48.416;8.512;2024-01-15T01:36:06;15.60;;;7.30;;
7903;SDS011;3997;48.416;8.512;2024-01-15T01:38:33;14.90;;;7.93;;
7903;SDS011;3997;48.416;8.512;2024-01-15T01:40:59;13.90;;;7.53;;
7903;SDS011;3997;48.416;8.512;2024-01-15T01:43:26;14.90;;;7.15;;
7903;SDS011;3997;48.416;8.512;2024-01-15T01:45:52;14.93;;;7.60;;
7903;SDS011;3997;48.416;8.512;2024-01-15T01:48:20;14.63;;;7.40;;
7903;SDS011;3997;48.416;8.512;2024-01-15T01:50:49;11.98;;;5.90;;
7903;SDS011;3997;48.416;8.512;2024-01-15T01:53:15;17.55;;;7.60;;
7903;SDS011;3997;48.416;8.512;2024-01-15T01:55:42;12.63;;;6.57;;
7903;SDS011;3997;48.416;8.512;2024-01-15T01:58:08;13.60;;;6.95;;
7903;SDS011;3997;48.416;8.512;2024-01-15T02:00:34;13.10;;;7.05;;
7903;SDS011;3997;48.416;8.512;2024-01-15T02:03:01;12.32;;;6.85;;
7903;SDS011;3997;48.416;8.512;2024-01-15T02:05:28;14.93;;;7.68;;
7903;SDS011;3997;48.416;8.512;2024-01-15T02:07:56;12.05;;;6.75;;
7903;SDS011;3997;48.416;8.512;2024-01-15T02:10:23;14.20;;;7.03;;
7903;SDS011;3997;48.416;8.512;2024-01-15T02:12:49;13.65;;;6.88;;
7903;SDS011;3997;48.416;8.512;2024-01-15T02:15:15;11.10;;;6.78;;
7903;SDS011;3997;48.416;8.512;2024-01-15T02:17:56;13.45;;;7.15;;
7903;SDS011;3997;48.416;8.512;2024-01-15T02:20:22;13.68;;;7.30;;
7903;SDS011;3997;48.416;8.512;2024-01-15T02:22:49;15.00;;;7.65;;
7903;SDS011;3997;48.416;8.512;2024-01-15T02:25:16;12.75;;;7.45;;
7903;SDS011;3997;48.416;8.512;2024-01-15T02:27:43;13.35;;;7.18;;
7903;SDS011;3997;48.416;8.512;2024-01-15T02:30:10;15.23;;;7.00;;
7903;SDS011;3997;48.416;8.512;2024-01-15T02:32:37;12.55;;;7.32;;
7903;SDS011;3997;48.416;8.512;2024-01-15T02:35:04;13.77;;;7.13;;
7903;SDS011;3997;48.416;8.512;2024-01-15T02:37:30;13.98;;;7.28;;
7903;SDS011;3997;48.416;8.512;2024-01-15T02:39:57;15.90;;;7.20;;
7903;SDS011;3997;48.416;8.512;2024-01-15T02:42:25;12.98;;;6.93;;
7903;SDS011;3997;48.416;8.512;2024-01-15T02:44:52;13.18;;;7.28;;
7903;SDS011;3997;48.416;8.512;2024-01-15T02:47:18;12.82;;;7.63;;
7903;SDS011;3997;48.416;8.512;2024-01-15T02:49:45;11.88;;;6.47;;
7903;SDS011;3997;48.416;8.512;2024-01-15T02:52:11;13.23;;;7.57;;
7903;SDS011;3997;48.416;8.512;2024-01-15T02:54:38;14.85;;;7.93;;
7903;SDS011;3997;48.416;8.512;2024-01-15T02:57:04;15.23;;;6.90;;
7903;SDS011;3997;48.416;8.512;2024-01-15T02:59:32;13.15;;;7.18;;
7903;SDS011;3997;48.416;8.512;2024-01-15T03:01:58;13.10;;;7.00;;
7903;SDS011;3997;48.416;8.512;2024-01-15T03:04:25;13.88;;;6.75;;
7903;SDS011;3997;48.416;8.512;2024-01-15T03:06:51;14.38;;;7.57;;
7903;SDS011;3997;48.416;8.512;2024-01-15T03:09:17;11.85;;;6.80;;
7903;SDS011;3997;48.416;8.512;2024-01-15T03:11:44;11.80;;;6.65;;
7903;SDS011;3997;48.416;8.512;2024-01-15T03:14:10;13.48;;;7.32;;
7903;SDS011;3997;48.416;8.512;2024-01-15T03:16:38;14.27;;;7.50;;
7903;SDS011;3997;48.416;8.512;2024-01-15T03:19:05;12.70;;;7.00;;
7903;SDS011;3997;48.416;8.512;2024-01-15T03:21:31;12.55;;;7.55;;
7903;SDS011;3997;48.416;8.512;2024-01-15T03:23:57;12.93;;;6.97;;
7903;SDS011;3997;48.416;8.512;2024-01-15T03:26:24;12.65;;;6.80;;
7903;SDS011;3997;48.416;8.512;2024-01-15T03:28:50;14.63;;;7.40;;
7903;SDS011;3997;48.416;8.512;2024-01-15T03:31:17;14.52;;;7.88;;
7903;SDS011;3997;48.416;8.512;2024-01-15T03:33:45;15.20;;;7.72;;
7903;SDS011;3997;48.416;8.512;2024-01-15T03:36:11;15.27;;;8.18;;
7903;SDS011;3997;48.416;8.512;2024-01-15T03:38:39;14.10;;;7.22;;
7903;SDS011;3997;48.416;8.512;2024-01-15T03:41:05;14.02;;;7.72;;
7903;SDS011;3997;48.416;8.512;2024-01-15T03:43:32;14.90;;;7.40;;
7903;SDS011;3997;48.416;8.512;2024-01-15T03:45:59;15.10;;;8.80;;
7903;SDS011;3997;48.416;8.512;2024-01-15T03:48:25;16.45;;;8.57;;
7903;SDS011;3997;48.416;8.512;2024-01-15T03:50:53;12.68;;;7.93;;
7903;SDS011;3997;48.416;8.512;2024-01-15T03:53:20;14.05;;;8.10;;
7903;SDS011;3997;48.416;8.512;2024-01-15T03:55:46;15.23;;;8.23;;
7903;SDS011;3997;48.416;8.512;2024-01-15T03:58:12;13.55;;;7.75;;
7903;SDS011;3997;48.416;8.512;2024-01-15T04:00:40;12.40;;;7.43;;
7903;SDS011;3997;48.416;8.512;2024-01-15T04:03:06;14.05;;;8.20;;
7903;SDS011;3997;48.416;8.512;2024-01-15T04:05:32;15.43;;;8.40;;
7903;SDS011;3997;48.416;8.512;2024-01-15T04:08:00;14.10;;;8.23;;
7903;SDS011;3997;48.416;8.512;2024-01-15T04:10:27;13.95;;;8.27;;
7903;SDS011;3997;48.416;8.512;2024-01-15T04:12:53;12.48;;;7.13;;
7903;SDS011;3997;48.416;8.512;2024-01-15T04:15:20;14.27;;;8.50;;
7903;SDS011;3997;48.416;8.512;2024-01-15T04:17:46;12.52;;;6.63;;
7903;SDS011;3997;48.416;8.512;2024-01-15T04:20:13;14.80;;;9.35;;
7903;SDS011;3997;48.416;8.512;2024-01-15T04:22:40;12.07;;;7.85;;
7903;SDS011;3997;48.416;8.512;2024-01-15T04:25:08;12.77;;;6.38;;
7903;SDS011;3997;48.416;8.512;2024-01-15T04:27:34;18.27;;;9.18;;
7903;SDS011;3997;48.416;8.512;2024-01-15T04:30:01;15.00;;;9.15;;
7903;SDS011;3997;48.416;8.512;2024-01-15T04:32:28;11.95;;;7.82;;
7903;SDS011;3997;48.416;8.512;2024-01-15T04:34:54;13.95;;;7.88;;
7903;SDS011;3997;48.416;8.512;2024-01-15T04:37:21;13.73;;;7.75;;
7903;SDS011;3997;48.416;8.512;2024-01-15T04:39:48;11.40;;;7.35;;
7903;SDS011;3997;48.416;8.512;2024-01-15T04:42:21;13.10;;;6.70;;
7903;SDS011;3997;48.416;8.512;2024-01-15T04:44:48;15.07;;;8.10;;
7903;SDS011;3997;48.416;8.512;2024-01-15T04:47:14;13.32;;;7.47;;
7903;SDS011;3997;48.416;8.512;2024-01-15T04:49:41;14.68;;;8.50;;
7903;SDS011;3997;48.416;8.512;2024-01-15T04:52:07;12.82;;;7.57;;
7903;SDS011;3997;48.416;8.512;2024-01-15T04:54:35;13.00;;;8.15;;
7903;SDS011;3997;48.416;8.512;2024-01-15T04:57:02;12.25;;;7.88;;
7903;SDS011;3997;48.416;8.512;2024-01-15T04:59:30;8.43;;;5.00;;
7903;SDS011;3997;48.416;8.512;2024-01-15T05:01:56;12.80;;;6.65;;
7903;SDS011;3997;48.416;8.512;2024-01-15T05:04:22;12.88;;;6.75;;
7903;SDS011;3997;48.416;8.512;2024-01-15T05:06:50;13.65;;;7.15;;
7903;SDS011;3997;48.416;8.512;2024-01-15T05:09:16;12.15;;;6.88;;
7903;SDS011;3997;48.416;8.512;2024-01-15T05:11:43;14.15;;;7.45;;
7903;SDS011;3997;48.416;8.512;2024-01-15T05:14:09;10.27;;;6.20;;
7903;SDS011;3997;48.416;8.512;2024-01-15T05:16:39;12.02;;;5.85;;
7903;SDS011;3997;48.416;8.512;2024-01-15T05:19:07;8.88;;;3.58;;
7903;SDS011;3997;48.416;8.512;2024-01-15T05:21:33;12.23;;;5.93;;
7903;SDS011;3997;48.416;8.512;2024-01-15T05:24:00;12.88;;;6.63;;
7903;SDS011;3997;48.416;8.512;2024-01-15T05:26:26;9.63;;;6.50;;
7903;SDS011;3997;48.416;8.512;2024-01-15T05:28:53;11.55;;;6.22;;
7903;SDS011;3997;48.416;8.512;2024-01-15T05:31:19;13.07;;;6.75;;
7903;SDS011;3997;48.416;8.512;2024-01-15T05:33:47;9.50;;;6.13;;
7903;SDS011;3997;48.416;8.512;2024-01-15T05:36:13;10.85;;;5.82;;
7903;SDS011;3997;48.416;8.512;2024-01-15T05:38:40;10.40;;;5.45;;
7903;SDS011;3997;48.416;8.512;2024-01-15T05:41:06;9.68;;;5.75;;
7903;SDS011;3997;48.416;8.512;2024-01-15T05:43:33;8.55;;;5.22;;
7903;SDS011;3997;48.416;8.512;2024-01-15T05:45:59;9.43;;;5.65;;
7903;SDS011;3997;48.416;8.512;2024-01-15T05:48:25;11.70;;;6.07;;
7903;SDS011;3997;48.416;8.512;2024-01-15T05:50:53;9.73;;;5.78;;
7903;SDS011;3997;48.416;8.512;2024-01-15T05:53:20;9.43;;;5.40;;
7903;SDS011;3997;48.416;8.512;2024-01-15T05:55:46;9.25;;;5.57;;
7903;SDS011;3997;48.416;8.512;2024-01-15T05:58:13;9.68;;;5.50;;
7903;SDS011;3997;48.416;8.512;2024-01-15T06:00:39;9.88;;;5.47;;
7903;SDS011;3997;48.416;8.512;2024-01-15T06:03:05;9.88;;;5.22;;
7903;SDS011;3997;48.416;8.512;2024-01-15T06:05:32;10.55;;;5.13;;
7903;SDS011;3997;48.416;8.512;2024-01-15T06:08:00;9.73;;;5.32;;
7903;SDS011;3997;48.416;8.512;2024-01-15T06:10:26;10.15;;;5.60;;
7903;SDS011;3997;48.416;8.512;2024-01-15T06:12:52;7.70;;;5.10;;
7903;SDS011;3997;48.416;8.512;2024-01-15T06:15:19;8.00;;;4.20;;
7903;SDS011;3997;48.416;8.512;2024-01-15T06:17:45;9.00;;;4.78;;
7903;SDS011;3997;48.416;8.512;2024-01-15T06:20:12;11.65;;;6.10;;
7903;SDS011;3997;48.416;8.512;2024-01-15T06:22:38;8.30;;;4.57;;
7903;SDS011;3997;48.416;8.512;2024-01-15T06:25:07;7.32;;;4.93;;
7903;SDS011;3997;48.416;8.512;2024-01-15T06:27:33;7.50;;;4.35;;
7903;SDS011;3997;48.416;8.512;2024-01-15T06:30:00;9.32;;;4.80;;
7903;SDS011;3997;48.416;8.512;2024-01-15T06:32:28;10.82;;;5.28;;
7903;SDS011;3997;48.416;8.512;2024-01-15T06:34:55;7.85;;;4.45;;
7903;SDS011;3997;48.416;8.512;2024-01-15T06:37:21;9.05;;;5.13;;
7903;SDS011;3997;48.416;8.512;2024-01-15T06:39:48;9.20;;;5.03;;
7903;SDS011;3997;48.416;8.512;2024-01-15T06:42:16;9.52;;;4.93;;
7903;SDS011;3997;48.416;8.512;2024-01-15T06:44:42;7.72;;;4.90;;
7903;SDS011;3997;48.416;8.512;2024-01-15T06:47:08;10.65;;;5.13;;
7903;SDS011;3997;48.416;8.512;2024-01-15T06:49:35;9.25;;;4.82;;
7903;SDS011;3997;48.416;8.512;2024-01-15T06:52:01;8.13;;;4.40;;
7903;SDS011;3997;48.416;8.512;2024-01-15T06:54:28;8.60;;;4.72;;
7903;SDS011;3997;48.416;8.512;2024-01-15T06:56:54;6.47;;;3.97;;
7903;SDS011;3997;48.416;8.512;2024-01-15T06:59:22;9.13;;;4.57;;
7903;SDS011;3997;48.416;8.512;2024-01-15T07:01:48;7.82;;;4.70;;
7903;SDS011;3997;48.416;8.512;2024-01-15T07:04:15;6.95;;;4.50;;
7903;SDS011;3997;48.416;8.512;2024-01-15T07:06:41;7.90;;;3.72;;
7903;SDS011;3997;48.416;8.512;2024-01-15T07:09:07;7.43;;;4.15;;
7903;SDS011;3997;48.416;8.512;2024-01-15T07:11:34;8.30;;;3.83;;
7903;SDS011;3997;48.416;8.512;2024-01-15T07:14:00;8.77;;;4.97;;
7903;SDS011;3997;48.416;8.512;2024-01-15T07:16:28;8.45;;;4.80;;
7903;SDS011;3997;48.416;8.512;2024-01-15T07:18:55;7.03;;;3.95;;
7903;SDS011;3997;48.416;8.512;2024-01-15T07:21:21;6.68;;;3.67;;
7903;SDS011;3997;48.416;8.512;2024-01-15T07:23:47;9.95;;;4.28;;
7903;SDS011;3997;48.416;8.512;2024-01-15T07:26:14;7.68;;;4.65;;
7903;SDS011;3997;48.416;8.512;2024-01-15T07:28:40;7.10;;;4.82;;
7903;SDS011;3997;48.416;8.512;2024-01-15T07:31:07;10.15;;;4.47;;
7903;SDS011;3997;48.416;8.512;2024-01-15T07:33:35;6.57;;;3.42;;
7903;SDS011;3997;48.416;8.512;2024-01-15T07:36:01;8.73;;;5.07;;
7903;SDS011;3997;48.416;8.512;2024-01-15T07:38:28;7.82;;;4.40;;
7903;SDS011;3997;48.416;8.512;2024-01-15T07:40:54;7.03;;;4.50;;
7903;SDS011;3997;48.416;8.512;2024-01-15T07:43:21;8.82;;;4.43;;
7903;SDS011;3997;48.416;8.512;2024-01-15T07:45:47;7.38;;;3.75;;
7903;SDS011;3997;48.416;8.512;2024-01-15T07:48:13;7.85;;;4.13;;
7903;SDS011;3997;48.416;8.512;2024-01-15T07:50:41;6.10;;;3.42;;
7903;SDS011;3997;48.416;8.512;2024-01-15T07:53:07;6.82;;;3.85;;
7903;SDS011;3997;48.416;8.512;2024-01-15T07:55:33;7.75;;;3.72;;
7903;SDS011;3997;48.416;8.512;2024-01-15T07:58:00;6.45;;;3.88;;
7903;SDS011;3997;48.416;8.512;2024-01-15T08:00:27;7.53;;;3.80;;
7903;SDS011;3997;48.416;8.512;2024-01-15T08:02:53;8.60;;;4.28;;
7903;SDS011;3997;48.416;8.512;2024-01-15T08:05:19;6.30;;;2.92;;
7903;SDS011;3997;48.416;8.512;2024-01-15T08:07:48;6.13;;;3.88;;
7903;SDS011;3997;48.416;8.512;2024-01-15T08:10:14;6.88;;;4.15;;
7903;SDS011;3997;48.416;8.512;2024-01-15T08:12:40;8.40;;;4.60;;
7903;SDS011;3997;48.416;8.512;2024-01-15T08:15:07;7.25;;;3.75;;
7903;SDS011;3997;48.416;8.512;2024-01-15T08:17:33;6.68;;;4.03;;
7903;SDS011;3997;48.416;8.512;2024-01-15T08:20:00;6.13;;;3.85;;
7903;SDS011;3997;48.416;8.512;2024-01-15T08:22:26;6.30;;;3.00;;
7903;SDS011;3997;48.416;8.512;2024-01-15T08:24:54;6.90;;;4.30;;
7903;SDS011;3997;48.416;8.512;2024-01-15T08:27:21;5.97;;;3.20;;
7903;SDS011;3997;48.416;8.512;2024-01-15T08:29:48;6.45;;;3.70;;
7903;SDS011;3997;48.416;8.512;2024-01-15T08:32:14;6.07;;;3.60;;
7903;SDS011;3997;48.416;8.512;2024-01-15T08:34:40;7.25;;;4.07;;
7903;SDS011;3997;48.416;8.512;2024-01-15T08:37:07;5.80;;;3.65;;
7903;SDS011;3997;48.416;8.512;2024-01-15T08:39:33;6.80;;;3.70;;
7903;SDS011;3997;48.416;8.512;2024-01-15T08:42:03;6.35;;;4.05;;
7903;SDS011;3997;48.416;8.512;2024-01-15T08:44:30;5.97;;;3.67;;
7903;SDS011;3997;48.416;8.512;2024-01-15T08:46:56;6.05;;;4.00;;
7903;SDS011;3997;48.416;8.512;2024-01-15T08:49:23;5.25;;;3.22;;
7903;SDS011;3997;48.416;8.512;2024-01-15T08:51:50;6.30;;;3.78;;
7903;SDS011;3997;48.416;8.512;2024-01-15T08:54:17;5.03;;;3.13;;
7903;SDS011;3997;48.416;8.512;2024-01-15T08:56:44;6.53;;;3.90;;
7903;SDS011;3997;48.416;8.512;2024-01-15T08:59:12;6.05;;;3.60;;
7903;SDS011;3997;48.416;8.512;2024-01-15T09:01:39;6.55;;;3.40;;
7903;SDS011;3997;48.416;8.512;2024-01-15T09:04:06;5.60;;;3.22;;
7903;SDS011;3997;48.416;8.512;2024-01-15T09:06:33;11.20;;;5.20;;
7903;SDS011;3997;48.416;8.512;2024-01-15T09:08:59;7.45;;;4.03;;
7903;SDS011;3997;48.416;8.512;2024-01-15T09:11:26;5.65;;;3.80;;
7903;SDS011;3997;48.416;8.512;2024-01-15T09:13:52;6.38;;;3.55;;
7903;SDS011;3997;48.416;8.512;2024-01-15T09:16:20;6.07;;;3.35;;
7903;SDS011;3997;48.416;8.512;2024-01-15T09:18:47;4.97;;;2.90;;
7903;SDS011;3997;48.416;8.512;2024-01-15T09:21:14;6.80;;;3.83;;
7903;SDS011;3997;48.416;8.512;2024-01-15T09:23:40;4.28;;;2.92;;
7903;SDS011;3997;48.416;8.512;2024-01-15T09:26:07;5.20;;;3.03;;
7903;SDS011;3997;48.416;8.512;2024-01-15T09:28:34;6.43;;;3.75;;
7903;SDS011;3997;48.416;8.512;2024-01-15T09:31:01;5.22;;;3.17;;
7903;SDS011;3997;48.416;8.512;2024-01-15T09:33:29;8.68;;;4.55;;
7903;SDS011;3997;48.416;8.512;2024-01-15T09:35:55;4.78;;;2.85;;
7903;SDS011;3997;48.416;8.512;2024-01-15T09:38:22;5.13;;;3.13;;
7903;SDS011;3997;48.416;8.512;2024-01-15T09:40:49;7.10;;;3.40;;
7903;SDS011;3997;48.416;8.512;2024-01-15T09:43:15;6.80;;;3.83;;
7903;SDS011;3997;48.416;8.512;2024-01-15T09:45:42;5.53;;;3.42;;
7903;SDS011;3997;48.416;8.512;2024-01-15T09:48:09;4.97;;;3.45;;
7903;SDS011;3997;48.416;8.512;2024-01-15T09:50:37;5.93;;;3.22;;
7903;SDS011;3997;48.416;8.512;2024-01-15T09:53:04;6.57;;;3.30;;
7903;SDS011;3997;48.416;8.512;2024-01-15T09:55:31;6.57;;;3.28;;
7903;SDS011;3997;48.416;8.512;2024-01-15T09:57:58;5.00;;;3.40;;
7903;SDS011;3997;48.416;8.512;2024-01-15T10:00:26;6.28;;;3.55;;
7903;SDS011;3997;48.416;8.512;2024-01-15T10:02:52;6.72;;;3.25;;
7903;SDS011;3997;48.416;8.512;2024-01-15T10:05:19;5.03;;;2.85;;
7903;SDS011;3997;48.416;8.512;2024-01-15T10:07:47;5.60;;;2.63;;
7903;SDS011;3997;48.416;8.512;2024-01-15T10:10:16;5.15;;;2.88;;
7903;SDS011;3997;48.416;8.512;2024-01-15T10:12:42;6.95;;;3.38;;
7903;SDS011;3997;48.416;8.512;2024-01-15T10:15:09;6.03;;;3.17;;
7903;SDS011;3997;48.416;8.512;2024-01-15T10:17:36;5.05;;;2.80;;
7903;SDS011;3997;48.416;8.512;2024-01-15T10:20:06;6.55;;;3.08;;
7903;SDS011;3997;48.416;8.512;2024-01-15T10:22:33;5.70;;;3.20;;
7903;SDS011;3997;48.416;8.512;2024-01-15T10:25:01;4.07;;;2.45;;
7903;SDS011;3997;48.416;8.512;2024-01-15T10:27:27;4.43;;;2.92;;
7903;SDS011;3997;48.416;8.512;2024-01-15T10:29:54;4.47;;;3.05;;
7903;SDS011;3997;48.416;8.512;2024-01-15T10:32:20;4.50;;;3.10;;
7903;SDS011;3997;48.416;8.512;2024-01-15T10:34:49;6.55;;;3.22;;
7903;SDS011;3997;48.416;8.512;2024-01-15T10:37:18;5.03;;;3.22;;
7903;SDS011;3997;48.416;8.512;2024-01-15T10:39:46;6.03;;;3.83;;
7903;SDS011;3997;48.416;8.512;2024-01-15T10:42:13;4.97;;;3.28;;
7903;SDS011;3997;48.416;8.512;2024-01-15T10:44:40;5.20;;;3.50;;
7903;SDS011;3997;48.416;8.512;2024-01-15T10:47:08;5.20;;;3.35;;
7903;SDS011;3997;48.416;8.512;2024-01-15T10:49:34;5.80;;;4.05;;
7903;SDS011;3997;48.416;8.512;2024-01-15T10:52:01;7.22;;;3.70;;
7903;SDS011;3997;48.416;8.512;2024-01-15T10:54:28;5.47;;;3.10;;
7903;SDS011;3997;48.416;8.512;2024-01-15T10:56:55;5.97;;;4.03;;
7903;SDS011;3997;48.416;8.512;2024-01-15T10:59:23;6.35;;;3.63;;
7903;SDS011;3997;48.416;8.512;2024-01-15T11:01:50;5.28;;;3.00;;
7903;SDS011;3997;48.416;8.512;2024-01-15T11:04:18;6.68;;;3.70;;
7903;SDS011;3997;48.416;8.512;2024-01-15T11:06:45;4.75;;;2.95;;
7903;SDS011;3997;48.416;8.512;2024-01-15T11:09:12;4.65;;;3.30;;
7903;SDS011;3997;48.416;8.512;2024-01-15T11:11:40;5.78;;;4.22;;
7903;SDS011;3997;48.416;8.512;2024-01-15T11:14:07;5.45;;;3.50;;
7903;SDS011;3997;48.416;8.512;2024-01-15T11:19:19;5.93;;;5.32;;
7903;SDS011;3997;48.416;8.512;2024-01-15T11:21:45;4.60;;;2.95;;
7903;SDS011;3997;48.416;8.512;2024-01-15T11:24:12;5.72;;;4.15;;
7903;SDS011;3997;48.416;8.512;2024-01-15T11:26:59;6.18;;;3.45;;
7903;SDS011;3997;48.416;8.512;2024-01-15T11:29:29;5.82;;;2.97;;
7903;SDS011;3997;48.416;8.512;2024-01-15T11:32:01;7.65;;;4.25;;
7903;SDS011;3997;48.416;8.512;2024-01-15T11:37:15;3.97;;;3.13;;
7903;SDS011;3997;48.416;8.512;2024-01-15T11:39:42;4.22;;;3.40;;
7903;SDS011;3997;48.416;8.512;2024-01-15T11:42:08;6.75;;;2.90;;
7903;SDS011;3997;48.416;8.512;2024-01-15T11:44:36;5.15;;;3.15;;
7903;SDS011;3997;48.416;8.512;2024-01-15T11:47:03;5.53;;;3.47;;
7903;SDS011;3997;48.416;8.512;2024-01-15T11:49:34;7.50;;;3.00;;
7903;SDS011;3997;48.416;8.512;2024-01-15T11:52:08;5.15;;;2.63;;
7903;SDS011;3997;48.416;8.512;2024-01-15T11:54:37;4.28;;;2.78;;
7903;SDS011;3997;48.416;8.512;2024-01-15T11:57:06;3.83;;;2.60;;
7903;SDS011;3997;48.416;8.512;2024-01-15T11:59:39;3.92;;;2.55;;
7903;SDS011;3997;48.416;8.512;2024-01-15T12:02:06;4.38;;;3.00;;
7903;SDS011;3997;48.416;8.512;2024-01-15T12:04:33;5.05;;;2.72;;
7903;SDS011;3997;48.416;8.512;2024-01-15T12:07:00;4.25;;;3.10;;
7903;SDS011;3997;48.416;8.512;2024-01-15T12:09:26;5.13;;;3.00;;
7903;SDS011;3997;48.416;8.512;2024-01-15T12:11:56;4.72;;;2.80;;
7903;SDS011;3997;48.416;8.512;2024-01-15T12:14:27;4.45;;;2.75;;
7903;SDS011;3997;48.416;8.512;2024-01-15T12:16:54;3.80;;;3.13;;
7903;SDS011;3997;48.416;8.512;2024-01-15T12:19:20;3.42;;;2.30;;
7903;SDS011;3997;48.416;8.512;2024-01-15T12:21:48;5.97;;;2.85;;
7903;SDS011;3997;48.416;8.512;2024-01-15T12:24:14;3.72;;;2.83;;
7903;SDS011;3997;48.416;8.512;2024-01-15T12:26:42;4.32;;;2.83;;
7903;SDS011;3997;48.416;8.512;2024-01-15T12:29:11;5.60;;;3.33;;
7903;SDS011;3997;48.416;8.512;2024-01-15T12:31:37;3.88;;;2.47;;
7903;SDS011;3997;48.416;8.512;2024-01-15T12:34:04;7.00;;;3.40;;
7903;SDS011;3997;48.416;8.512;2024-01-15T12:36:30;4.40;;;3.33;;
7903;SDS011;3997;48.416;8.512;2024-01-15T12:38:58;5.85;;;3.47;;
7903;SDS011;3997;48.416;8.512;2024-01-15T12:41:25;6.85;;;4.00;;
7903;SDS011;3997;48.416;8.512;2024-01-15T12:43:51;10.80;;;7.50;;
7903;SDS011;3997;48.416;8.512;2024-01-15T12:46:19;6.80;;;4.88;;
7903;SDS011;3997;48.416;8.512;2024-01-15T12:48:46;8.02;;;5.70;;
7903;SDS011;3997;48.416;8.512;2024-01-15T12:51:12;5.60;;;4.43;;
7903;SDS011;3997;48.416;8.512;2024-01-15T12:53:39;7.40;;;6.03;;
7903;SDS011;3997;48.416;8.512;2024-01-15T12:56:05;5.82;;;5.28;;
7903;SDS011;3997;48.416;8.512;2024-01-15T12:58:31;6.70;;;4.05;;
7903;SDS011;3997;48.416;8.512;2024-01-15T13:00:58;2.78;;;2.42;;
7903;SDS011;3997;48.416;8.512;2024-01-15T13:03:26;6.68;;;3.45;;
7903;SDS011;3997;48.416;8.512;2024-01-15T13:05:53;4.18;;;2.30;;
7903;SDS011;3997;48.416;8.512;2024-01-15T13:08:19;5.10;;;3.60;;
7903;SDS011;3997;48.416;8.512;2024-01-15T13:10:47;5.43;;;2.97;;
7903;SDS011;3997;48.416;8.512;2024-01-15T13:13:13;3.80;;;3.15;;
7903;SDS011;3997;48.416;8.512;2024-01-15T13:15:40;5.25;;;2.85;;
7903;SDS011;3997;48.416;8.512;2024-01-15T13:18:06;4.35;;;2.25;;
7903;SDS011;3997;48.416;8.512;2024-01-15T13:20:34;3.53;;;2.70;;
7903;SDS011;3997;48.416;8.512;2024-01-15T13:23:01;4.82;;;2.97;;
7903;SDS011;3997;48.416;8.512;2024-01-15T13:25:29;3.38;;;2.70;;
7903;SDS011;3997;48.416;8.512;2024-01-15T13:27:55;4.55;;;3.17;;
7903;SDS011;3997;48.416;8.512;2024-01-15T13:30:22;4.15;;;2.60;;
7903;SDS011;3997;48.416;8.512;2024-01-15T13:32:48;3.28;;;2.30;;
7903;SDS011;3997;48.416;8.512;2024-01-15T13:35:15;3.75;;;2.55;;
7903;SDS011;3997;48.416;8.512;2024-01-15T13:37:42;4.30;;;2.70;;
7903;SDS011;3997;48.416;8.512;2024-01-15T13:40:09;6.43;;;2.33;;
7903;SDS011;3997;48.416;8.512;2024-01-15T13:42:41;3.38;;;2.30;;
7903;SDS011;3997;48.416;8.512;2024-01-15T13:45:08;3.22;;;2.60;;
7903;SDS011;3997;48.416;8.512;2024-01-15T13:47:34;3.28;;;2.45;;
7903;SDS011;3997;48.416;8.512;2024-01-15T13:50:02;3.50;;;2.70;;
7903;SDS011;3997;48.416;8.512;2024-01-15T13:52:29;4.43;;;3.05;;
7903;SDS011;3997;48.416;8.512;2024-01-15T13:54:57;4.05;;;2.42;;
7903;SDS011;3997;48.416;8.512;2024-01-15T13:57:23;3.97;;;2.42;;
7903;SDS011;3997;48.416;8.512;2024-01-15T13:59:50;4.03;;;2.45;;
7903;SDS011;3997;48.416;8.512;2024-01-15T14:02:16;4.75;;;2.67;;
7903;SDS011;3997;48.416;8.512;2024-01-15T14:04:43;3.75;;;2.47;;
7903;SDS011;3997;48.416;8.512;2024-01-15T14:07:09;3.88;;;2.55;;
7903;SDS011;3997;48.416;8.512;2024-01-15T14:09:36;4.63;;;3.03;;
7903;SDS011;3997;48.416;8.512;2024-01-15T14:12:05;3.35;;;2.08;;
7903;SDS011;3997;48.416;8.512;2024-01-15T14:14:31;2.97;;;2.22;;
7903;SDS011;3997;48.416;8.512;2024-01-15T14:16:58;3.88;;;1.80;;
7903;SDS011;3997;48.416;8.512;2024-01-15T14:19:24;2.83;;;1.95;;
7903;SDS011;3997;48.416;8.512;2024-01-15T14:21:51;2.55;;;2.10;;
7903;SDS011;3997;48.416;8.512;2024-01-15T14:24:17;2.70;;;1.60;;
7903;SDS011;3997;48.416;8.512;2024-01-15T14:26:44;1.48;;;1.30;;
7903;SDS011;3997;48.416;8.512;2024-01-15T14:29:12;2.50;;;1.60;;
7903;SDS011;3997;48.416;8.512;2024-01-15T14:31:38;2.22;;;1.60;;
7903;SDS011;3997;48.416;8.512;2024-01-15T14:34:05;8.48;;;4.90;;
7903;SDS011;3997;48.416;8.512;2024-01-15T14:36:32;1.95;;;1.55;;
7903;SDS011;3997;48.416;8.512;2024-01-15T14:38:59;1.88;;;1.45;;
7903;SDS011;3997;48.416;8.512;2024-01-15T14:41:25;1.50;;;1.08;;
7903;SDS011;3997;48.416;8.512;2024-01-15T14:43:54;1.30;;;1.20;;
7903;SDS011;3997;48.416;8.512;2024-01-15T14:46:23;1.10;;;1.00;;
7903;SDS011;3997;48.416;8.512;2024-01-15T14:48:52;1.88;;;1.40;;
7903;SDS011;3997;48.416;8.512;2024-01-15T14:51:18;1.75;;;1.23;;
7903;SDS011;3997;48.416;8.512;2024-01-15T14:53:45;0.68;;;0.43;;
7903;SDS011;3997;48.416;8.512;2024-01-15T14:56:11;1.27;;;0.85;;
7903;SDS011;3997;48.416;8.512;2024-01-15T14:58:38;0.70;;;0.70;;
7903;SDS011;3997;48.416;8.512;2024-01-15T15:01:04;0.82;;;0.70;;
7903;SDS011;3997;48.416;8.512;2024-01-15T15:03:32;0.80;;;0.80;;
7903;SDS011;3997;48.416;8.512;2024-01-15T15:05:58;1.33;;;1.08;;
7903;SDS011;3997;48.416;8.512;2024-01-15T15:08:26;1.00;;;0.80;;
7903;SDS011;3997;48.416;8.512;2024-01-15T15:10:53;1.25;;;0.70;;
7903;SDS011;3997;48.416;8.512;2024-01-15T15:13:21;0.88;;;0.70;;